Time;durP1;ratioP1;P1;durP2;ratioP2;P2;SDS_P1;SDS_P2;PMS_P1;PMS_P2;Temp;Humidity;BMP_temperature;BMP_pressure;BME280_temperature;BME280_humidity;BME280_pressure;Samples;Min_cycle;Max_cycle;Signal;HPM_P1;HPM_P2
2021/06/02 00:01:10;;;;;;;;;;;13.30;99.90;;;12.84;100.00;100526.22;5073217;28;19974;-63
2021/06/02 00:03:41;;;;;;;;;;;13.30;99.90;;;12.72;100.00;100523.28;5073460;28;19954;-63
2021/06/02 00:06:08;;;;;;;;;;;13.20;99.90;;;12.70;100.00;100519.28;5072808;28;19928;-63
2021/06/02 00:08:36;;;;;;;;;;;13.20;99.90;;;12.81;100.00;100517.88;5073219;28;19946;-63
2021/06/02 00:11:06;;;;;;;;;;;13.20;99.90;;;12.85;100.00;100514.25;5072905;28;20385;-63
2021/06/02 00:13:35;;;;;;;;;;;13.20;99.90;;;12.81;100.00;100517.88;5073212;28;19925;-64
2021/06/02 00:16:02;;;;;;;;;;;13.10;99.90;;;12.66;100.00;100521.00;5072252;28;20170;-63
2021/06/02 00:18:30;;;;;;;;;;;13.10;99.90;;;12.52;100.00;100521.09;5073139;28;19929;-63
2021/06/02 00:20:59;;;;;;;;;;;;;;;12.48;100.00;100522.81;5072756;28;19928;-64
2021/06/02 00:23:27;;;;;;;;;;;12.90;99.90;;;12.37;100.00;100516.81;5072848;28;19931;-64
2021/06/02 00:25:54;;;;;;;;;;;12.90;99.90;;;12.44;100.00;100519.09;5072216;28;19925;-63
2021/06/02 00:28:21;;;;;;;;;;;12.80;99.90;;;12.53;100.00;100520.75;5073088;28;20409;-64
2021/06/02 00:30:49;;;;;;;;;;;12.90;99.90;;;12.54;100.00;100516.16;5072590;28;20278;-64
2021/06/02 00:33:17;;;;;;;;;;;13.00;99.90;;;12.51;100.00;100514.88;5072487;28;19928;-63
2021/06/02 00:35:44;;;;;;;;;;;13.00;99.90;;;12.48;100.00;100514.69;5072094;28;20432;-64
2021/06/02 00:38:13;;;;;;;;;;;13.00;99.90;;;12.43;100.00;100503.97;5072676;28;19928;-63
2021/06/02 00:40:46;;;;;;;;;;;12.90;99.90;;;12.43;100.00;100510.16;5072663;28;19990;-64
2021/06/02 00:43:15;;;;;;;;;;;12.90;99.90;;;12.45;100.00;100497.13;5072446;28;19925;-63
2021/06/02 00:45:43;;;;;;;;;;;12.90;99.90;;;12.39;100.00;100503.78;5071983;28;19930;-64
2021/06/02 00:48:14;;;;;;;;;;;12.90;99.90;;;12.33;100.00;100498.78;5072799;28;19985;-64
2021/06/02 00:50:44;;;;;;;;;;;12.80;99.90;;;12.29;100.00;100497.78;5072703;28;19939;-63
2021/06/02 00:53:14;;;;;;;;;;;12.80;99.90;;;12.39;100.00;100502.97;5072530;28;19928;-64
2021/06/02 00:55:41;;;;;;;;;;;12.70;99.90;;;12.42;100.00;100502.34;5071835;28;19936;-64
2021/06/02 00:58:10;;;;;;;;;;;12.70;99.90;;;12.36;100.00;100498.16;5072589;28;19932;-63
2021/06/02 01:00:38;;;;;;;;;;;12.70;99.90;;;12.32;100.00;100495.25;5072753;28;20328;-63
2021/06/02 01:03:07;;;;;;;;;;;12.70;99.90;;;12.27;100.00;100492.69;5071928;28;19935;-64
2021/06/02 01:05:35;;;;;;;;;;;12.70;99.90;;;12.18;100.00;100482.91;5071935;28;19928;-63
2021/06/02 01:08:04;;;;;;;;;;;12.70;99.90;;;12.07;100.00;100483.13;5072306;28;19924;-63
2021/06/02 01:10:33;;;;;;;;;;;12.60;99.90;;;12.03;100.00;100490.28;5072552;28;19925;-64
2021/06/02 01:13:01;;;;;;;;;;;12.50;99.90;;;12.02;100.00;100483.25;5071855;28;19962;-63
2021/06/02 01:15:28;;;;;;;;;;;12.50;99.90;;;11.98;100.00;100479.56;5071727;28;19931;-63
2021/06/02 01:17:56;;;;;;;;;;;12.50;99.90;;;12.00;100.00;100477.34;5072659;28;19928;-63
2021/06/02 01:20:24;;;;;;;;;;;12.50;99.90;;;11.98;100.00;100478.75;5072458;28;20500;-64
2021/06/02 01:22:53;;;;;;;;;;;12.50;99.90;;;11.84;100.00;100476.09;5072204;28;19925;-64
2021/06/02 01:25:23;;;;;;;;;;;12.30;99.90;;;11.76;100.00;100478.75;5071580;28;20424;-63
2021/06/02 01:27:50;;;;;;;;;;;12.30;99.90;;;11.75;100.00;100477.94;5072277;28;19931;-63
2021/06/02 01:30:20;;;;;;;;;;;12.20;99.90;;;11.76;100.00;100471.41;5072333;28;19924;-63
2021/06/02 01:33:05;;;;;;;;;;;12.30;99.90;;;11.76;100.00;100476.03;5071599;28;20391;-63
2021/06/02 01:35:52;;;;;;;;;;;12.20;99.90;;;11.72;100.00;100467.72;5071503;28;20370;-63
2021/06/02 01:38:56;;;;;;;;;;;12.20;99.90;;;11.80;100.00;100460.75;5072321;28;19924;-63
2021/06/02 01:41:28;;;;;;;;;;;12.30;99.90;;;11.76;100.00;100462.50;5071721;28;19955;-63
2021/06/02 01:44:10;;;;;;;;;;;;;;;11.81;100.00;100467.78;5072089;28;20335;-63
2021/06/02 01:46:52;;;;;;;;;;;12.30;99.90;;;11.79;100.00;100461.88;5071417;28;19925;-63
2021/06/02 01:49:37;;;;;;;;;;;12.30;99.90;;;11.78;100.00;100461.06;5072178;28;19924;-63
2021/06/02 01:52:19;;;;;;;;;;;12.30;99.90;;;11.72;100.00;100454.16;5071638;28;20305;-63
2021/06/02 01:55:15;;;;;;;;;;;12.20;99.90;;;11.70;100.00;100461.00;5071603;28;19925;-63
2021/06/02 01:58:05;;;;;;;;;;;12.20;99.90;;;11.79;100.00;100454.56;5072107;28;19928;-63
2021/06/02 02:00:44;;;;;;;;;;;12.20;99.90;;;11.89;100.00;100461.63;5072198;28;19929;-63
2021/06/02 02:03:38;;;;;;;;;;;12.40;99.90;;;11.84;100.00;100457.13;5071553;28;20266;-63
2021/06/02 02:06:37;;;;;;;;;;;12.40;99.90;;;11.85;100.00;100456.03;5071105;28;19924;-64
2021/06/02 02:09:06;;;;;;;;;;;12.30;99.90;;;11.88;100.00;100455.41;5071885;28;20378;-63
2021/06/02 02:11:35;;;;;;;;;;;12.40;99.90;;;11.93;100.00;100458.00;5071483;28;19928;-64
2021/06/02 02:14:25;;;;;;;;;;;12.40;99.90;;;12.00;100.00;100455.69;5071465;28;19925;-63
2021/06/02 02:16:59;;;;;;;;;;;12.50;99.90;;;11.98;100.00;100452.44;5071379;28;19925;-63
2021/06/02 02:19:48;;;;;;;;;;;12.50;99.90;;;11.96;100.00;100448.44;5071996;28;19925;-63
2021/06/02 02:22:27;;;;;;;;;;;12.40;99.90;;;11.95;100.00;100449.56;5072357;28;19928;-63
2021/06/02 02:25:02;;;;;;;;;;;12.40;99.90;;;11.89;100.00;100435.31;5075271;28;20020;-63
2021/06/02 02:27:36;;;;;;;;;;;12.30;99.90;;;11.80;100.00;100441.78;5075041;28;20396;-64
2021/06/02 02:30:07;;;;;;;;;;;12.20;99.90;;;11.75;100.00;100440.00;5075399;28;19972;-63
2021/06/02 02:32:56;;;;;;;;;;;12.20;99.90;;;11.74;100.00;100443.81;5074663;28;19929;-63
2021/06/02 02:35:39;;;;;;;;;;;12.20;99.90;;;11.80;100.00;100437.16;5074521;28;19925;-63
2021/06/02 02:38:09;;;;;;;;;;;12.30;99.90;;;11.82;100.00;100437.69;5075388;28;19924;-65
2021/06/02 02:40:48;;;;;;;;;;;12.40;99.90;;;11.76;100.00;100428.06;5075187;28;19925;-63
2021/06/02 02:43:25;;;;;;;;;;;12.20;99.90;;;11.76;100.00;100430.78;5074598;28;20005;-63
2021/06/02 02:46:04;;;;;;;;;;;12.20;99.90;;;11.78;100.00;100428.56;5074269;28;19925;-64
2021/06/02 02:48:38;;;;;;;;;;;12.30;99.90;;;11.79;100.00;100432.06;5075100;28;20061;-63
2021/06/02 02:51:13;;;;;;;;;;;;;;;11.79;100.00;100432.06;5074980;28;20388;-63
2021/06/02 02:53:46;;;;;;;;;;;12.30;99.90;;;11.76;100.00;100435.41;5074633;28;19928;-63
2021/06/02 02:56:21;;;;;;;;;;;12.20;99.90;;;11.71;100.00;100436.31;5074052;28;19932;-64
2021/06/02 02:58:57;;;;;;;;;;;12.20;99.90;;;11.68;100.00;100433.38;5074814;28;19928;-63
2021/06/02 03:01:40;;;;;;;;;;;12.10;99.90;;;11.69;100.00;100430.38;5074569;28;19925;-63
2021/06/02 03:04:12;;;;;;;;;;;12.10;99.90;;;11.69;100.00;100424.94;5074528;28;19924;-63
2021/06/02 03:06:42;;;;;;;;;;;12.10;99.90;;;11.64;100.00;100430.50;5073789;28;20366;-63
2021/06/02 03:09:18;;;;;;;;;;;12.10;99.90;;;11.66;100.00;100424.75;5074671;28;19928;-63
2021/06/02 03:11:51;;;;;;;;;;;12.10;99.90;;;11.68;100.00;100431.47;5074036;28;20416;-63
2021/06/02 03:14:20;;;;;;;;;;;12.20;99.90;;;11.69;100.00;100430.38;5074199;28;19978;-63
2021/06/02 03:16:55;;;;;;;;;;;12.20;99.90;;;11.74;100.00;100435.69;5073701;28;19928;-64
2021/06/02 03:19:31;;;;;;;;;;;12.20;99.90;;;11.71;100.00;100430.88;5074444;28;20332;-63
2021/06/02 03:22:09;;;;;;;;;;;12.20;99.90;;;11.72;100.00;100429.78;5074170;28;19932;-64
2021/06/02 03:24:49;;;;;;;;;;;12.20;99.90;;;11.76;100.00;100428.06;5073581;28;19928;-63
2021/06/02 03:27:22;;;;;;;;;;;12.20;99.90;;;11.77;100.00;100439.69;5073864;28;19935;-63
2021/06/02 03:29:55;;;;;;;;;;;12.20;99.90;;;11.75;100.00;100440.00;5074410;28;19932;-63
2021/06/02 03:32:43;;;;;;;;;;;12.20;99.90;;;11.71;100.00;100433.59;5073730;28;19928;-63
2021/06/02 03:35:13;;;;;;;;;;;12.20;99.90;;;11.75;100.00;100433.78;5073291;28;19952;-64
2021/06/02 03:37:57;;;;;;;;;;;12.10;99.90;;;11.75;100.00;100428.38;5073782;28;19986;-63
2021/06/02 03:40:45;;;;;;;;;;;12.10;99.90;;;11.71;100.00;100430.88;5073986;28;19932;-63
2021/06/02 03:43:17;;;;;;;;;;;12.10;99.90;;;11.65;100.00;100433.97;5073446;28;19931;-65
2021/06/02 03:45:57;;;;;;;;;;;12.00;99.90;;;11.55;100.00;100429.59;5073195;28;19928;-65
2021/06/02 03:48:32;;;;;;;;;;;;;;;11.47;100.00;100433.84;5073981;28;19981;-65
2021/06/02 03:51:11;;;;;;;;;;;11.90;99.90;;;11.48;100.00;100431.94;5073699;28;19978;-65
2021/06/02 03:53:51;;;;;;;;;;;11.90;99.90;;;11.59;100.00;100429.78;5073701;28;19925;-65
2021/06/02 03:56:33;;;;;;;;;;;11.90;99.90;;;11.64;100.00;100430.50;5072778;28;19931;-65
2021/06/02 03:59:07;;;;;;;;;;;12.00;99.90;;;11.70;100.00;100429.31;5073645;28;19931;-65
2021/06/02 04:01:41;;;;;;;;;;;12.00;99.90;;;11.74;100.00;100424.84;5073623;28;19955;-65
2021/06/02 04:04:18;;;;;;;;;;;12.10;99.90;;;11.70;100.00;100432.00;5073339;28;19925;-63
2021/06/02 04:06:52;;;;;;;;;;;12.10;99.90;;;11.68;100.00;100434.19;5072674;28;19935;-63
2021/06/02 04:09:25;;;;;;;;;;;12.10;99.90;;;11.60;100.00;100434.91;5073484;28;19928;-63
2021/06/02 04:11:58;;;;;;;;;;;12.10;99.90;;;11.54;100.00;100430.72;5072892;28;19963;-64
2021/06/02 04:14:32;;;;;;;;;;;12.00;99.90;;;11.47;100.00;100428.44;5072779;28;20419;-63
2021/06/02 04:16:59;;;;;;;;;;;11.80;99.90;;;11.40;100.00;100430.75;5072923;28;19935;-63
2021/06/02 04:19:29;;;;;;;;;;;11.90;99.90;;;11.47;100.00;100433.03;5073201;28;19929;-63
2021/06/02 04:22:02;;;;;;;;;;;11.80;99.90;;;11.53;100.00;100431.81;5072827;28;19924;-66
2021/06/02 04:24:30;;;;;;;;;;;;;;;11.61;100.00;100433.78;5072526;28;20034;-63
2021/06/02 04:26:58;;;;;;;;;;;11.90;99.90;;;11.64;100.00;100430.50;5072847;28;19925;-63
2021/06/02 04:29:26;;;;;;;;;;;11.90;99.90;;;11.64;100.00;100433.22;5072910;28;20275;-63
2021/06/02 04:31:56;;;;;;;;;;;11.90;99.90;;;11.63;100.00;100431.59;5072495;28;19925;-63
2021/06/02 04:34:24;;;;;;;;;;;11.90;99.90;;;11.59;100.00;100430.59;5072676;28;19947;-63
2021/06/02 04:36:53;;;;;;;;;;;11.80;99.90;;;11.59;100.00;100436.00;5072244;28;19924;-63
2021/06/02 04:39:21;;;;;;;;;;;11.90;99.90;;;11.56;100.00;100444.75;5073014;28;19932;-63
2021/06/02 04:41:49;;;;;;;;;;;11.90;99.90;;;11.50;100.00;100444.06;5072426;28;20435;-63
2021/06/02 04:44:17;;;;;;;;;;;11.90;99.90;;;11.49;100.00;100441.66;5072379;28;19935;-63
2021/06/02 04:46:46;;;;;;;;;;;11.90;99.90;;;11.53;100.00;100438.03;5071725;28;19970;-63
2021/06/02 04:49:14;;;;;;;;;;;12.00;99.90;;;11.60;100.00;100447.66;5072881;28;20074;-63
2021/06/02 04:52:10;;;;;;;;;;;12.00;99.90;;;11.57;100.00;100440.13;5072398;28;19976;-63
2021/06/02 04:55:14;;;;;;;;;;;12.00;99.90;;;11.51;100.00;100447.56;5071872;28;19925;-64
2021/06/02 04:58:02;;;;;;;;;;;12.00;99.90;;;11.52;100.00;100452.66;5072497;28;19936;-63
2021/06/02 05:00:57;;;;;;;;;;;11.90;99.90;;;11.52;100.00;100444.53;5072535;28;19925;-63
2021/06/02 05:04:01;;;;;;;;;;;11.90;99.90;;;11.58;100.00;100452.56;5072429;28;19964;-63
2021/06/02 05:07:03;;;;;;;;;;;11.90;99.90;;;11.57;100.00;100448.25;5061440;28;19943;-63
2021/06/02 05:10:23;;;;;;;;;;;12.00;99.90;;;11.52;100.00;100460.78;5072528;28;20017;-63
2021/06/02 05:13:26;;;;;;;;;;;11.90;99.90;;;11.56;100.00;100460.19;5072082;28;19928;-63
2021/06/02 05:16:46;;;;;;;;;;;12.00;99.90;;;11.53;100.00;100459.69;5071767;28;19931;-65
2021/06/02 05:19:49;;;;;;;;;;;12.00;99.90;;;11.56;100.00;100458.28;5072566;28;20495;-65
2021/06/02 05:22:47;;;;;;;;;;;12.00;99.90;;;11.57;100.00;100468.03;5072184;28;20021;-64
2021/06/02 05:25:36;;;;;;;;;;;12.10;99.90;;;11.55;100.00;100467.50;5047207;28;19932;-63
2021/06/02 05:28:52;;;;;;;;;;;12.10;99.90;;;11.64;100.00;100471.13;5072325;28;20274;-63
2021/06/02 05:31:56;;;;;;;;;;;12.10;99.90;;;11.75;100.00;100469.81;5072075;28;19924;-63
2021/06/02 05:34:53;;;;;;;;;;;12.10;99.90;;;12.40;100.00;100474.75;5072046;28;20301;-63
2021/06/02 05:38:06;;;;;;;;;;;12.40;99.90;;;13.38;100.00;100473.41;5071809;28;20055;-63
2021/06/02 05:41:08;;;;;;;;;;;13.20;99.90;;;14.21;95.67;100474.09;5044435;28;19931;-64
2021/06/02 05:44:04;;;;;;;;;;;14.20;99.90;;;14.80;89.86;100475.13;5061231;28;19924;-63
2021/06/02 05:47:15;;;;;;;;;;;14.80;99.90;;;15.54;86.75;100467.22;5071200;28;19932;-63
2021/06/02 05:50:16;;;;;;;;;;;15.50;99.90;;;16.39;81.75;100467.59;5072104;28;20366;-63
2021/06/02 05:53:21;;;;;;;;;;;16.40;99.90;;;16.90;77.82;100455.34;5071621;28;19924;-64
2021/06/02 05:56:04;;;;;;;;;;;17.20;99.90;;;17.19;76.28;100466.03;5073480;28;19924;-64
2021/06/02 05:59:00;;;;;;;;;;;17.20;99.90;;;18.16;72.28;100468.56;5075922;28;19928;-64
2021/06/02 06:01:52;;;;;;;;;;;18.80;99.90;;;19.26;69.15;100453.03;5072982;28;19928;-63
2021/06/02 06:05:01;;;;;;;;;;;19.90;99.90;;;20.33;64.26;100448.69;5076020;28;20358;-64
2021/06/02 06:08:16;;;;;;;;;;;20.50;99.90;;;21.98;58.41;100446.19;5016717;28;20369;-64
2021/06/02 06:11:00;;;;;;;;;;;21.30;99.90;;;22.98;54.78;100451.53;5013668;28;20338;-65
2021/06/02 06:13:48;;;;;;;;;;;22.40;99.90;;;23.75;52.32;100441.00;5075027;28;20018;-66
2021/06/02 06:16:56;;;;;;;;;;;23.20;99.90;;;24.45;50.66;100428.63;5074777;28;19924;-64
2021/06/02 06:19:49;;;;;;;;;;;24.10;99.90;;;25.32;48.63;100431.81;5075474;28;19931;-64
2021/06/02 06:22:43;;;;;;;;;;;24.90;99.90;;;26.15;46.63;100431.94;5075010;28;19925;-66
2021/06/02 06:25:14;;;;;;;;;;;25.70;99.90;;;26.46;45.89;100430.16;5075018;28;19928;-64
2021/06/02 06:27:47;;;;;;;;;;;26.30;99.90;;;27.00;45.11;100434.91;5075063;28;19932;-64
2021/06/02 06:30:20;;;;;;;;;;;26.90;99.90;;;27.63;43.10;100429.94;5075254;28;19925;-65
2021/06/02 06:32:50;;;;;;;;;;;27.40;99.90;;;28.05;43.50;100437.78;5074894;28;19931;-64
2021/06/02 06:35:18;;;;;;;;;;;28.00;99.90;;;28.33;42.46;100436.56;5074654;28;19931;-63
2021/06/02 06:37:49;;;;;;;;;;;28.30;99.90;;;28.40;42.19;100436.47;5074952;28;19929;-66
2021/06/02 06:40:20;;;;;;;;;;;28.50;99.90;;;28.50;42.03;100432.75;5075222;28;19931;-65
2021/06/02 06:42:52;;;;;;;;;;;28.80;99.90;;;28.76;41.90;100436.75;5074779;28;19932;-65
2021/06/02 06:45:22;;;;;;;;;;;29.10;99.90;;;28.74;41.72;100439.16;5074363;28;20350;-66
2021/06/02 06:47:50;;;;;;;;;;;29.40;99.90;;;28.67;42.01;100440.06;5074768;28;19931;-66
2021/06/02 06:50:19;;;;;;;;;;;29.60;99.90;;;28.70;42.38;100450.34;5075010;28;20286;-65
2021/06/02 06:52:49;;;;;;;;;;;30.00;99.90;;;28.57;41.76;100445.78;5074632;28;19978;-65
2021/06/02 06:55:17;;;;;;;;;;;30.10;99.90;;;28.37;42.23;100456.00;5074098;28;19924;-65
2021/06/02 06:57:45;;;;;;;;;;;30.20;99.90;;;28.13;42.89;100466.25;5074471;28;19932;-65
2021/06/02 07:00:13;;;;;;;;;;;30.20;99.90;;;27.76;42.68;100472.63;5074663;28;19924;-65
2021/06/02 07:02:44;;;;;;;;;;;30.30;99.90;;;26.90;46.07;100468.31;5074439;28;19928;-64
2021/06/02 07:05:12;;;;;;;;;;;30.00;99.90;;;25.97;47.50;100475.53;5074328;28;19932;-65
2021/06/02 07:07:42;;;;;;;;;;;29.40;99.90;;;25.30;49.19;100484.78;5074055;28;19924;-64
2021/06/02 07:10:12;;;;;;;;;;;28.30;99.90;;;24.63;51.86;100479.19;5074993;28;19924;-66
2021/06/02 07:12:41;;;;;;;;;;;;;;;24.23;54.22;100482.25;5074298;28;19928;-65
2021/06/02 07:15:10;;;;;;;;;;;26.00;99.90;;;23.78;54.60;100489.94;5073948;28;19979;-65
2021/06/02 07:17:40;;;;;;;;;;;25.10;99.90;;;23.59;56.23;100490.22;5074082;28;20382;-65
2021/06/02 07:20:11;;;;;;;;;;;24.50;99.90;;;23.43;54.83;100486.19;5074246;28;19925;-65
2021/06/02 07:22:40;;;;;;;;;;;;;;;23.13;54.33;100491.84;5074087;28;19925;-66
2021/06/02 07:25:08;;;;;;;;;;;;;;;22.90;57.04;100494.00;5073842;28;20302;-65
2021/06/02 07:27:36;;;;;;;;;;;23.40;99.90;;;22.84;57.20;100488.03;5073899;28;19932;-65
2021/06/02 07:30:04;;;;;;;;;;;23.20;99.90;;;22.76;59.13;100491.91;5074266;28;19979;-65
2021/06/02 07:32:31;;;;;;;;;;;23.10;99.90;;;22.57;59.35;100492.88;5073684;28;19932;-65
2021/06/02 07:34:58;;;;;;;;;;;23.10;99.90;;;22.52;58.16;100495.97;5073499;28;19936;-65
2021/06/02 07:37:27;;;;;;;;;;;23.00;99.90;;;22.41;58.16;100488.75;5073809;28;20042;-65
2021/06/02 07:39:54;;;;;;;;;;;22.80;99.90;;;22.28;57.42;100491.75;5073972;28;19931;-65
2021/06/02 07:42:21;;;;;;;;;;;22.70;99.90;;;22.37;59.79;100499.75;5073623;28;19932;-65
2021/06/02 07:44:49;;;;;;;;;;;22.70;99.90;;;22.57;58.37;100497.59;5073531;28;19928;-65
2021/06/02 07:47:16;;;;;;;;;;;22.90;99.90;;;22.63;57.46;100496.06;5073403;28;19924;-65
2021/06/02 07:49:43;;;;;;;;;;;22.90;99.90;;;22.73;57.74;100498.97;5073556;28;20373;-65
2021/06/02 07:52:10;;;;;;;;;;;23.00;99.90;;;22.65;58.06;100515.81;5073309;28;19924;-65
2021/06/02 07:54:39;;;;;;;;;;;22.90;99.90;;;22.50;56.03;100503.81;5073146;28;19924;-65
2021/06/02 07:57:07;;;;;;;;;;;22.90;99.90;;;21.71;56.78;100514.19;5073675;28;19928;-65
2021/06/02 07:59:34;;;;;;;;;;;22.40;99.90;;;21.64;59.83;100512.13;5073474;28;20344;-64
2021/06/02 08:02:03;;;;;;;;;;;22.10;99.90;;;21.64;58.81;100512.13;5072961;28;19940;-65
2021/06/02 08:04:30;;;;;;;;;;;22.10;99.90;;;21.41;59.46;100521.63;5073136;28;20366;-64
2021/06/02 08:07:00;;;;;;;;;;;21.80;99.90;;;21.90;60.29;100514.13;5073076;28;19930;-65
2021/06/02 08:09:27;;;;;;;;;;;22.10;99.90;;;22.18;58.36;100519.19;5073426;28;19958;-65
2021/06/02 08:11:56;;;;;;;;;;;22.30;99.90;;;22.09;57.37;100515.94;5073006;28;19925;-65
2021/06/02 08:14:23;;;;;;;;;;;22.40;99.90;;;22.10;58.34;100517.53;5073228;28;19924;-65
2021/06/02 08:16:51;;;;;;;;;;;22.30;99.90;;;22.48;57.23;100513.63;5072601;28;20305;-65
2021/06/02 08:19:18;;;;;;;;;;;22.80;99.90;;;22.61;56.21;100517.72;5072701;28;20362;-65
2021/06/02 08:21:45;;;;;;;;;;;22.90;99.90;;;22.35;56.69;100521.34;5072853;28;19932;-65
2021/06/02 08:24:13;;;;;;;;;;;22.40;99.90;;;21.49;58.13;100526.84;5073045;28;19935;-65
2021/06/02 08:26:41;;;;;;;;;;;22.30;99.90;;;20.76;60.52;100520.91;5072196;28;19924;-65
2021/06/02 08:29:10;;;;;;;;;;;21.50;99.90;;;21.45;60.17;100531.53;5073320;28;19929;-64
2021/06/02 08:31:38;;;;;;;;;;;22.10;99.90;;;22.35;57.00;100532.38;5072835;28;19925;-65
2021/06/02 08:34:05;;;;;;;;;;;;;;;22.67;55.76;100522.53;5072804;28;19931;-65
2021/06/02 08:36:32;;;;;;;;;;;23.10;99.90;;;22.94;54.92;100525.16;5072200;28;19928;-64
2021/06/02 08:38:59;;;;;;;;;;;23.30;99.90;;;22.92;54.24;100533.78;5072906;28;19932;-65
2021/06/02 08:41:27;;;;;;;;;;;23.50;99.90;;;22.87;53.78;100528.63;5072515;28;19924;-66
2021/06/02 08:43:54;;;;;;;;;;;23.50;99.90;;;23.27;52.66;100530.56;5072402;28;19947;-65
2021/06/02 08:46:23;;;;;;;;;;;23.90;99.90;;;23.44;52.04;100523.66;5072039;28;19933;-64
2021/06/02 08:48:51;;;;;;;;;;;;;;;22.59;52.28;100531.84;5072717;28;19936;-65
2021/06/02 08:51:19;;;;;;;;;;;23.40;99.90;;;21.95;55.07;100533.03;5072626;28;20227;-65
2021/06/02 08:53:47;;;;;;;;;;;22.80;99.90;;;21.35;58.45;100542.34;5072444;28;19931;-65
2021/06/02 08:56:15;;;;;;;;;;;22.20;99.90;;;20.81;60.67;100539.81;5071822;28;19932;-65
2021/06/02 08:58:42;;;;;;;;;;;21.60;99.90;;;20.58;62.03;100537.81;5072731;28;20344;-65
2021/06/02 09:01:10;;;;;;;;;;;21.30;99.90;;;20.38;63.26;100539.00;5072466;28;19931;-65
2021/06/02 09:03:38;;;;;;;;;;;21.00;99.90;;;20.15;64.24;100536.16;5072418;28;19967;-64
2021/06/02 09:06:07;;;;;;;;;;;20.80;99.90;;;19.99;63.90;100545.59;5071956;28;19925;-65
2021/06/02 09:08:35;;;;;;;;;;;20.60;99.90;;;19.82;65.62;100540.53;5072638;28;19964;-65
2021/06/02 09:11:11;;;;;;;;;;;20.40;99.90;;;20.85;64.08;100538.75;5072619;28;20366;-64
2021/06/02 09:13:38;;;;;;;;;;;21.10;99.90;;;21.84;60.60;100531.28;5072332;28;19932;-65
2021/06/02 09:16:18;;;;;;;;;;;22.50;99.90;;;22.47;58.25;100526.63;5071610;28;19929;-65
2021/06/02 09:18:58;;;;;;;;;;;22.70;99.90;;;22.84;56.66;100527.44;5072441;28;19929;-65
2021/06/02 09:21:28;;;;;;;;;;;23.30;99.90;;;22.36;55.31;100525.72;5072104;28;19931;-64
2021/06/02 09:23:55;;;;;;;;;;;23.10;99.90;;;22.03;57.68;100528.44;5072256;28;20019;-65
2021/06/02 09:26:24;;;;;;;;;;;22.70;99.90;;;22.55;55.28;100522.00;5071785;28;19929;-64
2021/06/02 09:28:58;;;;;;;;;;;23.00;99.90;;;22.91;53.90;100528.69;5073272;28;20297;-65
2021/06/02 09:31:31;;;;;;;;;;;23.30;99.90;;;23.07;54.00;100521.72;5076346;28;19924;-65
2021/06/02 09:34:05;;;;;;;;;;;23.90;99.90;;;23.49;53.05;100526.84;5076349;28;20373;-65
2021/06/02 09:36:33;;;;;;;;;;;23.90;99.90;;;23.86;51.50;100529.44;5075882;28;19967;-65
2021/06/02 09:39:04;;;;;;;;;;;24.40;99.90;;;24.07;51.42;100523.22;5076438;28;19928;-65
2021/06/02 09:41:32;;;;;;;;;;;24.60;99.90;;;23.97;51.22;100526.72;5076082;28;19935;-65
2021/06/02 09:44:00;;;;;;;;;;;24.50;99.90;;;24.00;50.77;100525.94;5076043;28;19929;-65
2021/06/02 09:46:27;;;;;;;;;;;24.60;99.90;;;24.00;51.06;100532.25;5075204;28;19954;-65
2021/06/02 09:49:03;;;;;;;;;;;24.50;99.90;;;23.84;50.08;100540.06;5076100;28;19928;-65
2021/06/02 09:51:41;;;;;;;;;;;24.40;99.90;;;23.94;50.00;100533.81;5075648;28;20309;-65
2021/06/02 09:54:10;;;;;;;;;;;24.50;99.90;;;23.75;51.17;100534.88;5075738;28;19932;-65
2021/06/02 09:56:41;;;;;;;;;;;24.40;99.90;;;23.28;52.06;100544.00;5075245;28;20259;-66
2021/06/02 09:59:10;;;;;;;;;;;24.00;99.90;;;23.20;53.40;100536.81;5075961;28;19935;-65
2021/06/02 10:01:52;;;;;;;;;;;;;;;22.62;53.19;100538.56;5075631;28;19931;-65
2021/06/02 10:04:20;;;;;;;;;;;23.40;99.90;;;22.68;54.41;100545.38;5075864;28;19924;-65
2021/06/02 10:06:48;;;;;;;;;;;23.20;99.90;;;23.15;52.97;100547.41;5074839;28;19924;-65
2021/06/02 10:09:15;;;;;;;;;;;23.50;99.90;;;23.39;51.60;100542.13;5075791;28;19924;-65
2021/06/02 10:12:01;;;;;;;;;;;23.80;99.90;;;23.72;50.34;100541.16;5075078;28;19924;-65
2021/06/02 10:14:28;;;;;;;;;;;24.20;99.90;;;23.89;49.42;100543.25;5074487;28;19925;-65
2021/06/02 10:16:56;;;;;;;;;;;24.40;99.90;;;23.83;48.31;100552.28;5075333;28;19928;-65
2021/06/02 10:19:43;;;;;;;;;;;24.40;99.90;;;23.96;48.94;100553.53;5075450;28;19925;-65
2021/06/02 10:22:21;;;;;;;;;;;24.50;99.90;;;23.78;48.18;100555.41;5075278;28;19931;-65
2021/06/02 10:24:48;;;;;;;;;;;;;;;23.89;49.38;100565.31;5075176;28;20437;-65
2021/06/02 10:27:17;;;;;;;;;;;24.50;99.90;;;24.01;48.98;100563.44;5075062;28;19978;-65
2021/06/02 10:29:44;;;;;;;;;;;24.60;99.90;;;24.12;47.80;100558.78;5075255;28;19925;-65
2021/06/02 10:32:12;;;;;;;;;;;24.70;99.90;;;24.00;48.39;100556.31;5074980;28;19935;-65
2021/06/02 10:34:40;;;;;;;;;;;24.70;99.90;;;24.10;47.85;100561.13;5074497;28;19925;-65
2021/06/02 10:37:10;;;;;;;;;;;24.70;99.90;;;24.18;48.21;100558.03;5075272;28;20374;-65
2021/06/02 10:39:37;;;;;;;;;;;24.80;99.90;;;24.17;47.07;100567.50;5075392;28;19931;-65
2021/06/02 10:42:08;;;;;;;;;;;24.80;99.90;;;24.16;48.72;100562.38;5073800;28;19931;-65
2021/06/02 10:44:37;;;;;;;;;;;24.80;99.90;;;24.01;49.36;100563.44;5074627;28;19973;-65
2021/06/02 10:47:04;;;;;;;;;;;24.60;99.90;;;23.94;48.77;100558.66;5074982;28;19932;-65
2021/06/02 10:49:36;;;;;;;;;;;24.60;99.90;;;23.86;50.31;100562.56;5075036;28;19929;-65
2021/06/02 10:52:06;;;;;;;;;;;24.50;99.90;;;23.65;50.46;100563.19;5074663;28;19966;-65
2021/06/02 10:54:37;;;;;;;;;;;24.30;99.90;;;23.47;49.95;100562.28;5074312;28;19932;-65
2021/06/02 10:57:12;;;;;;;;;;;24.10;99.90;;;23.32;52.74;100568.84;5075073;28;19925;-65
2021/06/02 10:59:40;;;;;;;;;;;23.90;99.90;;;23.62;49.27;100575.00;5074726;28;20027;-65
2021/06/02 11:02:09;;;;;;;;;;;24.10;99.90;;;23.69;48.53;100579.78;5074201;28;19929;-63
2021/06/02 11:04:37;;;;;;;;;;;24.20;99.90;;;23.76;49.36;100580.66;5074228;28;19947;-65
2021/06/02 11:07:20;;;;;;;;;;;24.30;99.90;;;23.85;49.71;100578.34;5074359;28;20490;-63
2021/06/02 11:10:00;;;;;;;;;;;24.40;99.90;;;24.00;47.96;100581.19;5075203;28;19932;-65
2021/06/02 11:13:03;;;;;;;;;;;24.50;99.90;;;23.69;49.54;100586.13;5073852;28;20266;-63
2021/06/02 11:15:44;;;;;;;;;;;24.30;99.90;;;23.55;49.37;100590.75;5072121;28;19924;-64
2021/06/02 11:18:29;;;;;;;;;;;24.20;99.90;;;23.45;50.64;100596.97;5074918;28;20336;-65
2021/06/02 11:20:58;;;;;;;;;;;24.00;99.90;;;23.63;49.87;100587.66;5074804;28;19924;-65
2021/06/02 11:23:33;;;;;;;;;;;24.10;99.90;;;23.73;49.23;100589.69;5073648;28;19925;-65
2021/06/02 11:26:25;;;;;;;;;;;24.30;99.90;;;23.43;49.27;100591.03;5073693;28;19977;-65
2021/06/02 11:28:52;;;;;;;;;;;24.10;99.90;;;23.22;51.60;100589.63;5074632;28;19924;-65
2021/06/02 11:31:20;;;;;;;;;;;23.80;99.90;;;23.25;51.01;100590.84;5074077;28;19947;-65
2021/06/02 11:33:48;;;;;;;;;;;23.80;99.90;;;23.34;51.22;100589.38;5073678;28;19932;-63
2021/06/02 11:36:15;;;;;;;;;;;23.90;99.90;;;23.45;50.11;100589.47;5073185;28;19931;-64
2021/06/02 11:38:44;;;;;;;;;;;23.90;99.90;;;23.66;50.57;100588.84;5074135;28;19929;-63
2021/06/02 11:41:13;;;;;;;;;;;24.10;99.90;;;23.70;48.76;100592.44;5073851;28;19932;-64
2021/06/02 11:43:41;;;;;;;;;;;24.20;99.90;;;23.62;50.36;100582.53;5073330;28;19932;-64
2021/06/02 11:46:08;;;;;;;;;;;24.20;99.90;;;23.94;49.75;100592.59;5073279;28;19932;-63